sensor_id;sensor_type;location;lat;lon;timestamp;P1;durP1;ratioP1;P2;durP2;ratioP2
25657;SDS011;13517;59.320;18.042;2024-03-22T00:02:17;15.10;;;9.68;;
25657;SDS011;13517;59.320;18.042;2024-03-22T00:04:42;17.77;;;10.13;;
25657;SDS011;13517;59.320;18.042;2024-03-22T00:07:08;16.80;;;9.60;;
25657;SDS011;13517;59.320;18.042;2024-03-22T00:09:33;14.18;;;8.40;;
25657;SDS011;13517;59.320;18.042;2024-03-22T00:11:59;18.63;;;9.13;;
25657;SDS011;13517;59.320;18.042;2024-03-22T00:14:24;15.15;;;8.95;;
25657;SDS011;13517;59.320;18.042;2024-03-22T00:16:50;14.20;;;8.55;;
25657;SDS011;13517;59.320;18.042;2024-03-22T00:19:15;15.32;;;9.40;;
25657;SDS011;13517;59.320;18.042;2024-03-22T00:21:40;15.93;;;9.13;;
25657;SDS011;13517;59.320;18.042;2024-03-22T00:24:06;17.08;;;9.43;;
25657;SDS011;13517;59.320;18.042;2024-03-22T00:26:31;17.35;;;9.07;;
25657;SDS011;13517;59.320;18.042;2024-03-22T00:28:57;15.25;;;8.18;;
25657;SDS011;13517;59.320;18.042;2024-03-22T00:31:25;13.48;;;8.18;;
25657;SDS011;13517;59.320;18.042;2024-03-22T00:33:51;14.18;;;8.75;;
25657;SDS011;13517;59.320;18.042;2024-03-22T00:36:16;14.35;;;8.10;;
25657;SDS011;13517;59.320;18.042;2024-03-22T00:38:41;13.80;;;8.05;;
25657;SDS011;13517;59.320;18.042;2024-03-22T00:41:07;13.07;;;8.05;;
25657;SDS011;13517;59.320;18.042;2024-03-22T00:43:32;15.80;;;7.38;;
25657;SDS011;13517;59.320;18.042;2024-03-22T00:45:57;13.60;;;7.78;;
25657;SDS011;13517;59.320;18.042;2024-03-22T00:48:23;12.10;;;7.60;;
25657;SDS011;13517;59.320;18.042;2024-03-22T00:50:49;19.88;;;8.48;;
25657;SDS011;13517;59.320;18.042;2024-03-22T00:53:14;13.80;;;8.07;;
25657;SDS011;13517;59.320;18.042;2024-03-22T00:55:40;13.60;;;7.88;;
25657;SDS011;13517;59.320;18.042;2024-03-22T00:58:05;11.80;;;7.07;;
25657;SDS011;13517;59.320;18.042;2024-03-22T01:00:31;14.82;;;8.20;;
25657;SDS011;13517;59.320;18.042;2024-03-22T01:02:56;14.50;;;8.40;;
25657;SDS011;13517;59.320;18.042;2024-03-22T01:05:21;15.80;;;7.88;;
25657;SDS011;13517;59.320;18.042;2024-03-22T01:07:47;14.50;;;8.60;;
25657;SDS011;13517;59.320;18.042;2024-03-22T01:10:12;16.45;;;8.98;;
25657;SDS011;13517;59.320;18.042;2024-03-22T01:12:38;17.80;;;8.90;;
25657;SDS011;13517;59.320;18.042;2024-03-22T01:15:04;19.00;;;9.75;;
25657;SDS011;13517;59.320;18.042;2024-03-22T01:17:31;17.85;;;9.13;;
25657;SDS011;13517;59.320;18.042;2024-03-22T01:19:56;15.43;;;8.00;;
25657;SDS011;13517;59.320;18.042;2024-03-22T01:22:22;18.83;;;8.73;;
25657;SDS011;13517;59.320;18.042;2024-03-22T01:24:48;18.67;;;8.98;;
25657;SDS011;13517;59.320;18.042;2024-03-22T01:27:14;20.38;;;9.60;;
25657;SDS011;13517;59.320;18.042;2024-03-22T01:29:39;19.83;;;8.57;;
25657;SDS011;13517;59.320;18.042;2024-03-22T01:32:05;23.50;;;10.40;;
25657;SDS011;13517;59.320;18.042;2024-03-22T01:34:30;21.35;;;9.10;;
25657;SDS011;13517;59.320;18.042;2024-03-22T01:36:56;15.45;;;7.90;;
25657;SDS011;13517;59.320;18.042;2024-03-22T01:39:21;19.33;;;8.55;;
25657;SDS011;13517;59.320;18.042;2024-03-22T01:41:47;18.30;;;8.88;;
25657;SDS011;13517;59.320;18.042;2024-03-22T01:44:13;21.17;;;8.60;;
25657;SDS011;13517;59.320;18.042;2024-03-22T01:46:39;18.35;;;7.97;;
25657;SDS011;13517;59.320;18.042;2024-03-22T01:49:06;20.10;;;8.43;;
25657;SDS011;13517;59.320;18.042;2024-03-22T01:51:38;19.73;;;7.93;;
25657;SDS011;13517;59.320;18.042;2024-03-22T01:54:04;16.10;;;8.43;;
25657;SDS011;13517;59.320;18.042;2024-03-22T01:56:33;15.95;;;7.53;;
25657;SDS011;13517;59.320;18.042;2024-03-22T01:58:58;12.98;;;6.82;;
25657;SDS011;13517;59.320;18.042;2024-03-22T02:01:24;17.33;;;7.82;;
25657;SDS011;13517;59.320;18.042;2024-03-22T02:03:49;14.73;;;7.07;;
25657;SDS011;13517;59.320;18.042;2024-03-22T02:06:14;20.58;;;7.75;;
25657;SDS011;13517;59.320;18.042;2024-03-22T02:08:40;12.25;;;6.55;;
25657;SDS011;13517;59.320;18.042;2024-03-22T02:11:07;14.90;;;6.55;;
25657;SDS011;13517;59.320;18.042;2024-03-22T02:13:32;12.98;;;6.00;;
25657;SDS011;13517;59.320;18.042;2024-03-22T02:15:58;12.25;;;6.18;;
25657;SDS011;13517;59.320;18.042;2024-03-22T02:18:23;12.27;;;6.20;;
25657;SDS011;13517;59.320;18.042;2024-03-22T02:20:49;13.82;;;6.18;;
25657;SDS011;13517;59.320;18.042;2024-03-22T02:23:14;14.45;;;5.70;;
25657;SDS011;13517;59.320;18.042;2024-03-22T02:25:39;13.48;;;6.20;;
25657;SDS011;13517;59.320;18.042;2024-03-22T02:28:05;12.43;;;6.80;;
25657;SDS011;13517;59.320;18.042;2024-03-22T02:30:30;12.63;;;6.10;;
25657;SDS011;13517;59.320;18.042;2024-03-22T02:32:56;11.10;;;6.03;;
25657;SDS011;13517;59.320;18.042;2024-03-22T02:35:21;11.38;;;5.72;;
25657;SDS011;13517;59.320;18.042;2024-03-22T02:37:46;10.50;;;6.00;;
25657;SDS011;13517;59.320;18.042;2024-03-22T02:40:12;14.18;;;5.90;;
25657;SDS011;13517;59.320;18.042;2024-03-22T02:42:37;12.48;;;5.63;;
25657;SDS011;13517;59.320;18.042;2024-03-22T02:45:03;10.65;;;5.63;;
25657;SDS011;13517;59.320;18.042;2024-03-22T02:47:28;15.75;;;6.53;;
25657;SDS011;13517;59.320;18.042;2024-03-22T02:49:54;11.25;;;5.60;;
25657;SDS011;13517;59.320;18.042;2024-03-22T02:52:19;12.70;;;6.35;;
25657;SDS011;13517;59.320;18.042;2024-03-22T02:54:45;11.73;;;6.20;;
25657;SDS011;13517;59.320;18.042;2024-03-22T02:57:10;12.50;;;6.57;;
25657;SDS011;13517;59.320;18.042;2024-03-22T02:59:36;16.60;;;6.93;;
25657;SDS011;13517;59.320;18.042;2024-03-22T03:02:01;13.57;;;6.55;;
25657;SDS011;13517;59.320;18.042;2024-03-22T03:04:26;9.43;;;5.95;;
25657;SDS011;13517;59.320;18.042;2024-03-22T03:06:52;12.05;;;6.03;;
25657;SDS011;13517;59.320;18.042;2024-03-22T03:09:17;13.32;;;6.68;;
25657;SDS011;13517;59.320;18.042;2024-03-22T03:11:42;9.75;;;5.65;;
25657;SDS011;13517;59.320;18.042;2024-03-22T03:14:08;13.50;;;6.40;;
25657;SDS011;13517;59.320;18.042;2024-03-22T03:16:33;11.93;;;6.53;;
25657;SDS011;13517;59.320;18.042;2024-03-22T03:18:59;11.68;;;6.40;;
25657;SDS011;13517;59.320;18.042;2024-03-22T03:21:24;11.48;;;6.60;;
25657;SDS011;13517;59.320;18.042;2024-03-22T03:23:49;10.70;;;5.88;;
25657;SDS011;13517;59.320;18.042;2024-03-22T03:26:15;13.45;;;7.05;;
25657;SDS011;13517;59.320;18.042;2024-03-22T03:28:40;8.63;;;5.40;;
25657;SDS011;13517;59.320;18.042;2024-03-22T03:31:05;8.88;;;5.25;;
25657;SDS011;13517;59.320;18.042;2024-03-22T03:33:31;9.77;;;5.65;;
25657;SDS011;13517;59.320;18.042;2024-03-22T03:35:57;10.90;;;5.55;;
25657;SDS011;13517;59.320;18.042;2024-03-22T03:38:22;11.82;;;5.57;;
25657;SDS011;13517;59.320;18.042;2024-03-22T03:40:48;8.82;;;5.75;;
25657;SDS011;13517;59.320;18.042;2024-03-22T03:43:13;10.63;;;5.55;;
25657;SDS011;13517;59.320;18.042;2024-03-22T03:45:39;9.50;;;5.13;;
25657;SDS011;13517;59.320;18.042;2024-03-22T03:48:05;9.27;;;5.45;;
25657;SDS011;13517;59.320;18.042;2024-03-22T03:50:30;9.77;;;5.35;;
25657;SDS011;13517;59.320;18.042;2024-03-22T03:52:55;11.20;;;5.53;;
25657;SDS011;13517;59.320;18.042;2024-03-22T03:55:22;13.60;;;5.57;;
25657;SDS011;13517;59.320;18.042;2024-03-22T03:57:49;11.00;;;5.65;;
25657;SDS011;13517;59.320;18.042;2024-03-22T04:00:15;11.45;;;5.80;;
25657;SDS011;13517;59.320;18.042;2024-03-22T04:02:40;10.50;;;5.57;;
25657;SDS011;13517;59.320;18.042;2024-03-22T04:05:06;9.10;;;5.10;;
25657;SDS011;13517;59.320;18.042;2024-03-22T04:07:32;9.80;;;5.45;;
25657;SDS011;13517;59.320;18.042;2024-03-22T04:09:57;11.15;;;6.13;;
25657;SDS011;13517;59.320;18.042;2024-03-22T04:12:25;9.85;;;5.63;;
25657;SDS011;13517;59.320;18.042;2024-03-22T04:14:51;10.43;;;5.57;;
25657;SDS011;13517;59.320;18.042;2024-03-22T04:17:16;9.77;;;5.40;;
25657;SDS011;13517;59.320;18.042;2024-03-22T04:19:41;10.50;;;5.65;;
25657;SDS011;13517;59.320;18.042;2024-03-22T04:22:07;10.43;;;5.93;;
25657;SDS011;13517;59.320;18.042;2024-03-22T04:24:32;10.57;;;5.72;;
25657;SDS011;13517;59.320;18.042;2024-03-22T04:26:57;10.30;;;5.63;;
25657;SDS011;13517;59.320;18.042;2024-03-22T04:29:23;12.07;;;5.63;;
25657;SDS011;13517;59.320;18.042;2024-03-22T04:31:48;17.40;;;5.95;;
25657;SDS011;13517;59.320;18.042;2024-03-22T04:34:13;10.77;;;5.40;;
25657;SDS011;13517;59.320;18.042;2024-03-22T04:36:39;12.02;;;5.65;;
25657;SDS011;13517;59.320;18.042;2024-03-22T04:39:04;9.55;;;5.60;;
25657;SDS011;13517;59.320;18.042;2024-03-22T04:41:30;10.23;;;5.45;;
25657;SDS011;13517;59.320;18.042;2024-03-22T04:43:55;10.00;;;5.05;;
25657;SDS011;13517;59.320;18.042;2024-03-22T04:46:20;10.25;;;5.28;;
25657;SDS011;13517;59.320;18.042;2024-03-22T04:48:46;14.10;;;5.63;;
25657;SDS011;13517;59.320;18.042;2024-03-22T04:51:11;13.40;;;6.00;;
25657;SDS011;13517;59.320;18.042;2024-03-22T04:53:36;10.35;;;5.68;;
25657;SDS011;13517;59.320;18.042;2024-03-22T04:56:02;8.38;;;5.32;;
25657;SDS011;13517;59.320;18.042;2024-03-22T04:58:27;13.90;;;5.97;;
25657;SDS011;13517;59.320;18.042;2024-03-22T05:00:57;11.80;;;5.93;;
25657;SDS011;13517;59.320;18.042;2024-03-22T05:03:23;11.52;;;5.80;;
25657;SDS011;13517;59.320;18.042;2024-03-22T05:05:49;17.00;;;6.65;;
25657;SDS011;13517;59.320;18.042;2024-03-22T05:08:15;13.07;;;6.13;;
25657;SDS011;13517;59.320;18.042;2024-03-22T05:10:40;14.77;;;6.75;;
25657;SDS011;13517;59.320;18.042;2024-03-22T05:13:07;10.43;;;6.50;;
25657;SDS011;13517;59.320;18.042;2024-03-22T05:15:32;12.90;;;6.35;;
25657;SDS011;13517;59.320;18.042;2024-03-22T05:17:58;10.30;;;6.60;;
25657;SDS011;13517;59.320;18.042;2024-03-22T05:20:24;16.88;;;5.95;;
25657;SDS011;13517;59.320;18.042;2024-03-22T05:22:49;10.73;;;6.15;;
25657;SDS011;13517;59.320;18.042;2024-03-22T05:25:15;17.58;;;7.15;;
25657;SDS011;13517;59.320;18.042;2024-03-22T05:27:41;9.98;;;6.68;;
25657;SDS011;13517;59.320;18.042;2024-03-22T05:30:07;13.13;;;6.18;;
25657;SDS011;13517;59.320;18.042;2024-03-22T05:32:36;15.48;;;6.55;;
25657;SDS011;13517;59.320;18.042;2024-03-22T05:35:02;13.10;;;6.75;;
25657;SDS011;13517;59.320;18.042;2024-03-22T05:37:27;11.30;;;6.47;;
25657;SDS011;13517;59.320;18.042;2024-03-22T05:39:53;10.45;;;6.47;;
25657;SDS011;13517;59.320;18.042;2024-03-22T05:42:19;11.15;;;6.50;;
25657;SDS011;13517;59.320;18.042;2024-03-22T05:44:44;11.02;;;6.47;;
25657;SDS011;13517;59.320;18.042;2024-03-22T05:47:10;11.43;;;6.72;;
25657;SDS011;13517;59.320;18.042;2024-03-22T05:49:35;13.73;;;6.90;;
25657;SDS011;13517;59.320;18.042;2024-03-22T05:52:00;11.63;;;6.68;;
25657;SDS011;13517;59.320;18.042;2024-03-22T05:54:26;11.63;;;6.55;;
25657;SDS011;13517;59.320;18.042;2024-03-22T05:56:51;13.35;;;6.53;;
25657;SDS011;13517;59.320;18.042;2024-03-22T05:59:17;12.05;;;6.32;;
25657;SDS011;13517;59.320;18.042;2024-03-22T06:01:42;14.95;;;7.10;;
25657;SDS011;13517;59.320;18.042;2024-03-22T06:04:07;8.85;;;5.65;;
25657;SDS011;13517;59.320;18.042;2024-03-22T06:06:36;8.95;;;6.30;;
25657;SDS011;13517;59.320;18.042;2024-03-22T06:09:01;13.05;;;6.85;;
25657;SDS011;13517;59.320;18.042;2024-03-22T06:11:36;12.88;;;6.32;;
25657;SDS011;13517;59.320;18.042;2024-03-22T06:14:01;11.50;;;6.32;;
25657;SDS011;13517;59.320;18.042;2024-03-22T06:16:27;10.65;;;5.85;;
25657;SDS011;13517;59.320;18.042;2024-03-22T06:18:52;9.20;;;6.05;;
25657;SDS011;13517;59.320;18.042;2024-03-22T06:21:17;14.40;;;7.20;;
25657;SDS011;13517;59.320;18.042;2024-03-22T06:23:50;11.00;;;6.15;;
25657;SDS011;13517;59.320;18.042;2024-03-22T06:26:17;12.70;;;5.72;;
25657;SDS011;13517;59.320;18.042;2024-03-22T06:28:43;13.90;;;6.03;;
25657;SDS011;13517;59.320;18.042;2024-03-22T06:31:08;10.68;;;5.57;;
25657;SDS011;13517;59.320;18.042;2024-03-22T06:33:34;11.88;;;5.80;;
25657;SDS011;13517;59.320;18.042;2024-03-22T06:36:00;11.63;;;5.30;;
25657;SDS011;13517;59.320;18.042;2024-03-22T06:38:25;11.95;;;5.60;;
25657;SDS011;13517;59.320;18.042;2024-03-22T06:40:51;7.35;;;5.47;;
25657;SDS011;13517;59.320;18.042;2024-03-22T06:43:16;8.60;;;5.07;;
25657;SDS011;13517;59.320;18.042;2024-03-22T06:45:42;8.68;;;5.47;;
25657;SDS011;13517;59.320;18.042;2024-03-22T06:48:07;11.98;;;5.13;;
25657;SDS011;13517;59.320;18.042;2024-03-22T06:50:32;12.30;;;5.97;;
25657;SDS011;13517;59.320;18.042;2024-03-22T06:52:58;11.23;;;5.63;;
25657;SDS011;13517;59.320;18.042;2024-03-22T06:55:23;8.00;;;4.97;;
25657;SDS011;13517;59.320;18.042;2024-03-22T06:57:49;10.35;;;4.80;;
25657;SDS011;13517;59.320;18.042;2024-03-22T07:00:15;7.03;;;5.18;;
25657;SDS011;13517;59.320;18.042;2024-03-22T07:02:41;14.15;;;5.70;;
25657;SDS011;13517;59.320;18.042;2024-03-22T07:05:07;8.40;;;5.72;;
25657;SDS011;13517;59.320;18.042;2024-03-22T07:07:33;12.30;;;5.65;;
25657;SDS011;13517;59.320;18.042;2024-03-22T07:10:00;8.00;;;5.68;;
25657;SDS011;13517;59.320;18.042;2024-03-22T07:12:25;8.77;;;5.50;;
25657;SDS011;13517;59.320;18.042;2024-03-22T07:14:50;9.00;;;5.32;;
25657;SDS011;13517;59.320;18.042;2024-03-22T07:17:16;8.15;;;5.05;;
25657;SDS011;13517;59.320;18.042;2024-03-22T07:19:41;6.13;;;4.95;;
25657;SDS011;13517;59.320;18.042;2024-03-22T07:22:07;7.80;;;5.70;;
25657;SDS011;13517;59.320;18.042;2024-03-22T07:24:33;14.00;;;5.82;;
25657;SDS011;13517;59.320;18.042;2024-03-22T07:26:58;6.57;;;5.20;;
25657;SDS011;13517;59.320;18.042;2024-03-22T07:29:24;15.05;;;6.30;;
25657;SDS011;13517;59.320;18.042;2024-03-22T07:31:49;13.25;;;6.10;;
25657;SDS011;13517;59.320;18.042;2024-03-22T07:34:14;8.30;;;5.20;;
25657;SDS011;13517;59.320;18.042;2024-03-22T07:36:40;8.80;;;4.97;;
25657;SDS011;13517;59.320;18.042;2024-03-22T07:39:06;11.38;;;5.90;;
25657;SDS011;13517;59.320;18.042;2024-03-22T07:41:32;9.35;;;5.50;;
25657;SDS011;13517;59.320;18.042;2024-03-22T07:43:58;8.73;;;5.47;;
25657;SDS011;13517;59.320;18.042;2024-03-22T07:46:27;12.48;;;5.75;;
25657;SDS011;13517;59.320;18.042;2024-03-22T07:48:53;9.90;;;6.10;;
25657;SDS011;13517;59.320;18.042;2024-03-22T07:51:19;9.32;;;5.40;;
25657;SDS011;13517;59.320;18.042;2024-03-22T07:53:44;10.73;;;6.65;;
25657;SDS011;13517;59.320;18.042;2024-03-22T07:56:10;8.75;;;5.70;;
25657;SDS011;13517;59.320;18.042;2024-03-22T07:58:36;9.45;;;6.32;;
25657;SDS011;13517;59.320;18.042;2024-03-22T08:01:01;8.32;;;5.55;;
25657;SDS011;13517;59.320;18.042;2024-03-22T08:03:27;11.00;;;5.80;;
25657;SDS011;13517;59.320;18.042;2024-03-22T08:05:52;9.63;;;5.93;;
25657;SDS011;13517;59.320;18.042;2024-03-22T08:08:18;9.63;;;5.78;;
25657;SDS011;13517;59.320;18.042;2024-03-22T08:10:43;11.35;;;5.55;;
25657;SDS011;13517;59.320;18.042;2024-03-22T08:13:08;9.63;;;6.18;;
25657;SDS011;13517;59.320;18.042;2024-03-22T08:15:34;8.60;;;5.85;;
25657;SDS011;13517;59.320;18.042;2024-03-22T08:18:00;7.32;;;5.22;;
25657;SDS011;13517;59.320;18.042;2024-03-22T08:20:26;13.57;;;5.63;;
25657;SDS011;13517;59.320;18.042;2024-03-22T08:22:51;7.88;;;5.28;;
25657;SDS011;13517;59.320;18.042;2024-03-22T08:25:16;9.55;;;5.75;;
25657;SDS011;13517;59.320;18.042;2024-03-22T08:27:43;8.38;;;4.72;;
25657;SDS011;13517;59.320;18.042;2024-03-22T08:30:09;9.65;;;5.90;;
25657;SDS011;13517;59.320;18.042;2024-03-22T08:32:35;12.35;;;5.75;;
25657;SDS011;13517;59.320;18.042;2024-03-22T08:35:02;8.55;;;5.20;;
25657;SDS011;13517;59.320;18.042;2024-03-22T08:37:29;8.43;;;5.45;;
25657;SDS011;13517;59.320;18.042;2024-03-22T08:39:54;8.15;;;5.10;;
25657;SDS011;13517;59.320;18.042;2024-03-22T08:42:20;8.82;;;5.93;;
25657;SDS011;13517;59.320;18.042;2024-03-22T08:44:45;8.77;;;5.50;;
25657;SDS011;13517;59.320;18.042;2024-03-22T08:47:11;6.90;;;5.10;;
25657;SDS011;13517;59.320;18.042;2024-03-22T08:49:36;9.25;;;5.65;;
